KMOT/MOT METAR and TAF weather

Enter ICAO airport designator
Station Type Date Time Source
KMOT METAR 2019/08/18 09:54 UTC NOAA

KMOT 180954Z AUTO 22010KT 10SM CLR 11/07 A2980 RMK AO2 SLP093 T01060072


Station Type Date Time Source
KMOT Decoded METAR 2019/08/18 09:54 UTC NOAA

Station name not available
Aug 18, 2019 - 05:54 AM EDT / 2019.08.18 0954 UTC
Wind: from the SW (220 degrees) at 12 MPH (10 KT):0
Visibility: 10 mile(s):0
Sky conditions: clear
Temperature: 51.1 F (10.6 C)
Dew Point: 45.0 F (7.2 C)
Relative Humidity: 79%
Pressure (altimeter): 29.8 in. Hg (1009 hPa)
ob: KMOT 180954Z AUTO 22010KT 10SM CLR 11/07 A2980 RMK AO2 SLP093 T01060072
cycle: 10

Station Type Date Time Source
KMOT TAF 2019/08/18 06:22 UTC NOAA

TAF KMOT 180520Z 1806/1906 27006KT P6SM SKC
FM181700 23013G22KT P6SM FEW090 FEW250
FM190300 22006KT P6SM SKC

Example: see airport list